createdAt,value
2023-09-02T00:02:00.614Z,45.60
2023-09-02T00:04:31.323Z,45.75
2023-09-02T00:06:59.954Z,45.69
2023-09-02T00:09:28.522Z,45.75
2023-09-02T00:11:56.969Z,45.84
2023-09-02T00:14:25.463Z,45.91
2023-09-02T00:16:55.377Z,46.05
2023-09-02T00:19:24.157Z,45.89
2023-09-02T00:21:53.074Z,45.98
2023-09-02T00:24:21.594Z,46.18
2023-09-02T00:26:50.711Z,46.25
2023-09-02T00:29:19.211Z,46.20
2023-09-02T00:31:47.829Z,46.09
2023-09-02T00:34:17.663Z,45.94
2023-09-02T00:36:46.180Z,45.96
2023-09-02T00:39:14.975Z,45.94
2023-09-02T00:41:49.227Z,45.98
2023-09-02T00:44:17.889Z,46.12
2023-09-02T00:46:47.119Z,46.07
2023-09-02T00:49:17.329Z,46.21
2023-09-02T00:51:45.907Z,46.30
2023-09-02T00:54:14.343Z,46.45
2023-09-02T00:56:43.392Z,46.45
2023-09-02T00:59:13.806Z,46.36
2023-09-02T01:01:45.660Z,46.39
2023-09-02T01:04:14.317Z,46.32
2023-09-02T01:06:44.999Z,46.44
2023-09-02T01:09:14.096Z,46.18
2023-09-02T01:11:42.600Z,46.12
2023-09-02T01:14:12.999Z,46.09
2023-09-02T01:16:42.055Z,45.90
2023-09-02T01:19:15.109Z,45.92
2023-09-02T01:22:14.685Z,46.13
2023-09-02T01:25:18.568Z,45.85
2023-09-02T01:27:54.622Z,45.89
2023-09-02T01:30:28.839Z,45.92
2023-09-02T01:32:59.843Z,45.89
2023-09-02T01:35:36.826Z,45.86
2023-09-02T01:38:08.045Z,45.81
2023-09-02T01:40:37.864Z,45.87
2023-09-02T01:43:08.908Z,45.95
2023-09-02T01:45:38.720Z,45.97
2023-09-02T01:48:09.020Z,45.91
2023-09-02T01:50:40.913Z,45.95
2023-09-02T01:53:10.135Z,45.85
2023-09-02T01:55:39.460Z,45.84
2023-09-02T01:58:09.605Z,45.91
2023-09-02T02:00:40.118Z,45.88
2023-09-02T02:03:17.345Z,45.88
2023-09-02T02:05:52.822Z,45.79
2023-09-02T02:08:31.522Z,45.79
2023-09-02T02:11:04.634Z,45.89
2023-09-02T02:13:34.603Z,45.97
2023-09-02T02:16:03.385Z,45.88
2023-09-02T02:18:32.210Z,45.89
2023-09-02T02:21:03.771Z,45.93
2023-09-02T02:23:32.598Z,45.74
2023-09-02T02:26:02.549Z,45.79
2023-09-02T02:28:31.840Z,45.79
2023-09-02T02:31:02.321Z,46.09
2023-09-02T02:33:30.914Z,46.21
2023-09-02T02:35:59.431Z,46.27
2023-09-02T02:38:27.874Z,46.26
2023-09-02T02:40:56.460Z,46.17
2023-09-02T02:43:27.658Z,46.16
2023-09-02T02:45:56.399Z,46.08
2023-09-02T02:48:31.481Z,46.04
2023-09-02T02:51:00.616Z,46.27
2023-09-02T02:53:29.175Z,46.21
2023-09-02T02:55:57.729Z,46.02
2023-09-02T02:58:26.208Z,46.06
2023-09-02T03:01:05.331Z,46.15
2023-09-02T03:03:36.516Z,46.35
2023-09-02T03:06:06.526Z,46.30
2023-09-02T03:08:36.227Z,46.34
2023-09-02T03:11:07.566Z,46.48
2023-09-02T03:13:36.104Z,46.46
2023-09-02T03:16:05.712Z,46.42
2023-09-02T03:18:35.729Z,46.26
2023-09-02T03:21:05.013Z,46.38
2023-09-02T03:23:35.771Z,46.35
2023-09-02T03:26:16.431Z,46.30
2023-09-02T03:28:45.024Z,46.42
2023-09-02T03:31:14.150Z,46.55
2023-09-02T03:33:44.177Z,46.33
2023-09-02T03:36:18.822Z,46.53
2023-09-02T03:38:47.589Z,46.57
2023-09-02T03:41:18.630Z,46.76
2023-09-02T03:43:47.869Z,46.71
2023-09-02T03:46:16.745Z,46.50
2023-09-02T03:48:47.581Z,46.55
2023-09-02T03:51:17.691Z,46.81
2023-09-02T03:53:46.632Z,46.72
2023-09-02T03:56:15.608Z,47.00
2023-09-02T03:58:44.481Z,46.72
2023-09-02T04:01:13.837Z,47.13
2023-09-02T04:03:43.033Z,46.93
2023-09-02T04:06:13.008Z,46.81
2023-09-02T04:08:41.528Z,47.28
2023-09-02T04:11:10.167Z,47.12
2023-09-02T04:13:38.676Z,47.36
2023-09-02T04:16:09.808Z,47.26
2023-09-02T04:18:38.827Z,47.34
2023-09-02T04:21:10.211Z,47.41
2023-09-02T04:23:42.716Z,47.03
2023-09-02T04:26:11.284Z,47.19
2023-09-02T04:28:40.711Z,47.56
2023-09-02T04:31:09.266Z,47.55
2023-09-02T04:33:37.856Z,47.38
2023-09-02T04:36:07.333Z,47.37
2023-09-02T04:38:36.332Z,47.50
2023-09-02T04:41:07.662Z,47.58
2023-09-02T04:43:37.295Z,47.30
2023-09-02T04:46:06.706Z,47.29
2023-09-02T04:48:35.343Z,47.42
2023-09-02T04:51:04.853Z,47.13
2023-09-02T04:53:33.451Z,47.34
2023-09-02T04:56:02.834Z,47.36
2023-09-02T04:58:32.749Z,47.66
2023-09-02T05:01:10.827Z,47.15
2023-09-02T05:03:39.421Z,47.19
2023-09-02T05:06:11.636Z,47.18
2023-09-02T05:08:40.512Z,47.35
2023-09-02T05:11:09.072Z,47.08
2023-09-02T05:13:39.080Z,47.11
2023-09-02T05:16:07.676Z,46.94
2023-09-02T05:18:36.294Z,46.85
2023-09-02T05:21:05.023Z,46.97
2023-09-02T05:23:34.331Z,46.88
2023-09-02T05:26:02.796Z,46.59
2023-09-02T05:28:31.287Z,46.40
2023-09-02T05:31:01.238Z,46.45
2023-09-02T05:33:29.828Z,46.25
2023-09-02T05:35:58.400Z,46.20
2023-09-02T05:38:26.944Z,46.15
2023-09-02T05:40:55.887Z,46.02
2023-09-02T05:43:25.909Z,46.01
2023-09-02T05:45:54.478Z,45.98
2023-09-02T05:48:24.342Z,45.73
2023-09-02T05:50:52.799Z,45.77
2023-09-02T05:53:21.590Z,45.52
2023-09-02T05:55:55.700Z,45.57
2023-09-02T05:58:25.963Z,45.19
2023-09-02T06:00:55.707Z,45.23
2023-09-02T06:03:25.675Z,44.87
2023-09-02T06:05:54.182Z,44.95
2023-09-02T06:08:22.701Z,44.79
2023-09-02T06:10:59.221Z,44.51
2023-09-02T06:13:28.197Z,44.21
2023-09-02T06:16:01.461Z,44.36
2023-09-02T06:18:32.060Z,43.73
2023-09-02T06:21:01.070Z,43.80
2023-09-02T06:23:30.846Z,43.33
2023-09-02T06:25:59.765Z,43.61
2023-09-02T06:28:29.435Z,43.20
2023-09-02T06:30:58.451Z,43.35
2023-09-02T06:33:27.259Z,43.37
2023-09-02T06:35:56.999Z,43.10
2023-09-02T06:38:25.645Z,42.65
2023-09-02T06:40:54.139Z,42.87
2023-09-02T06:43:22.700Z,42.81
2023-09-02T06:45:51.236Z,42.65
2023-09-02T06:48:19.776Z,42.09
2023-09-02T06:50:48.745Z,41.96
2023-09-02T06:53:18.850Z,41.58
2023-09-02T06:55:47.432Z,41.26
2023-09-02T06:58:15.883Z,41.02
2023-09-02T07:00:45.153Z,41.08
2023-09-02T07:03:15.213Z,40.60
2023-09-02T07:05:43.726Z,40.35
2023-09-02T07:08:13.065Z,40.45
2023-09-02T07:10:42.868Z,39.88
2023-09-02T07:13:11.421Z,39.75
2023-09-02T07:15:39.915Z,39.59
2023-09-02T07:18:08.605Z,39.67
2023-09-02T07:20:39.025Z,39.54
2023-09-02T07:23:07.546Z,39.29
2023-09-02T07:25:36.135Z,38.86
2023-09-02T07:28:07.239Z,38.48
2023-09-02T07:30:39.736Z,38.35
2023-09-02T07:33:08.415Z,38.36
2023-09-02T07:35:37.596Z,38.23
2023-09-02T07:38:06.714Z,38.00
2023-09-02T07:40:35.355Z,38.01
2023-09-02T07:43:06.064Z,37.88
2023-09-02T07:45:34.681Z,37.94
2023-09-02T07:48:03.710Z,37.53
2023-09-02T07:50:32.208Z,37.58
2023-09-02T07:53:00.701Z,37.60
2023-09-02T07:55:29.273Z,37.53
2023-09-02T07:57:58.629Z,37.20
2023-09-02T08:00:28.522Z,37.19
2023-09-02T08:02:57.060Z,36.92
2023-09-02T08:05:26.012Z,37.13
2023-09-02T08:07:54.670Z,36.84
2023-09-02T08:10:23.324Z,36.72
2023-09-02T08:12:51.813Z,36.61
2023-09-02T08:15:21.386Z,36.55
2023-09-02T08:17:51.305Z,36.50
2023-09-02T08:20:20.088Z,36.34
2023-09-02T08:22:48.619Z,36.30
2023-09-02T08:25:17.543Z,36.07
2023-09-02T08:27:47.563Z,35.63
2023-09-02T08:30:16.683Z,35.94
2023-09-02T08:32:45.313Z,35.88
2023-09-02T08:35:15.355Z,35.23
2023-09-02T08:37:43.896Z,35.30
2023-09-02T08:40:13.289Z,35.13
2023-09-02T08:42:43.339Z,35.11
2023-09-02T08:45:14.734Z,34.89
2023-09-02T08:47:44.576Z,34.68
2023-09-02T08:50:15.414Z,34.65
2023-09-02T08:52:46.091Z,34.60
2023-09-02T08:55:16.253Z,34.86
2023-09-02T08:57:46.935Z,34.65
2023-09-02T09:00:15.738Z,34.58
2023-09-02T09:02:45.355Z,34.46
2023-09-02T09:05:15.792Z,35.03
2023-09-02T09:07:45.672Z,34.85
2023-09-02T09:10:19.610Z,34.72
2023-09-02T09:12:52.570Z,34.86
2023-09-02T09:15:23.815Z,34.31
2023-09-02T09:17:52.743Z,34.18
2023-09-02T09:20:23.043Z,33.88
2023-09-02T09:22:52.225Z,33.98
2023-09-02T09:25:22.091Z,33.83
2023-09-02T09:27:51.201Z,33.57
2023-09-02T09:30:31.180Z,33.47
2023-09-02T09:33:02.353Z,32.68
2023-09-02T09:35:32.745Z,32.33
2023-09-02T09:38:01.994Z,32.22
2023-09-02T09:40:35.168Z,32.11
2023-09-02T09:43:16.464Z,31.72
2023-09-02T09:45:53.113Z,31.57
2023-09-02T09:48:21.747Z,31.88
2023-09-02T09:50:52.009Z,31.68
2023-09-02T09:53:21.370Z,31.17
2023-09-02T09:55:50.154Z,31.28
2023-09-02T09:58:25.141Z,31.30
2023-09-02T10:00:53.807Z,30.53
2023-09-02T10:03:32.060Z,30.51
2023-09-02T10:06:03.490Z,30.51
2023-09-02T10:08:52.173Z,31.23
2023-09-02T10:11:23.201Z,31.03
2023-09-02T10:13:54.017Z,30.58
2023-09-02T10:16:23.653Z,30.63
2023-09-02T10:18:52.276Z,30.64
2023-09-02T10:21:26.073Z,30.73
2023-09-02T10:24:01.785Z,30.93
2023-09-02T10:26:37.036Z,30.53
2023-09-02T10:29:10.554Z,30.44
2023-09-02T10:31:42.715Z,30.49
2023-09-02T10:34:19.906Z,30.74
2023-09-02T10:36:57.537Z,30.27
2023-09-02T10:39:43.785Z,30.20
2023-09-02T10:42:13.285Z,29.54
2023-09-02T10:44:41.908Z,29.49
2023-09-02T10:47:10.848Z,29.58
2023-09-02T10:49:40.588Z,29.55
2023-09-02T10:52:13.563Z,29.34
2023-09-02T10:55:05.887Z,29.06
2023-09-02T10:57:45.657Z,28.13
2023-09-02T11:00:19.339Z,27.84
2023-09-02T11:02:49.948Z,27.67
2023-09-02T11:05:18.461Z,27.46
2023-09-02T11:07:50.487Z,27.25
2023-09-02T11:10:19.706Z,26.97
2023-09-02T11:13:07.622Z,26.94
2023-09-02T11:15:38.130Z,26.54
2023-09-02T11:18:29.413Z,26.28
2023-09-02T11:20:59.627Z,25.41
2023-09-02T11:23:29.646Z,25.01
2023-09-02T11:26:08.945Z,24.64
2023-09-02T11:28:38.232Z,24.20
2023-09-02T11:31:11.891Z,23.72
2023-09-02T11:33:41.581Z,23.28
2023-09-02T11:36:18.811Z,22.42
2023-09-02T11:38:48.824Z,21.77
2023-09-02T11:41:26.231Z,20.98
2023-09-02T11:43:56.367Z,20.60
2023-09-02T11:46:24.967Z,20.09
2023-09-02T11:48:53.599Z,19.88
2023-09-02T11:51:22.218Z,19.74
2023-09-02T11:53:57.147Z,19.23
2023-09-02T11:56:25.819Z,19.39
2023-09-02T11:58:54.340Z,19.26
2023-09-02T12:01:22.993Z,18.71
2023-09-02T12:03:51.559Z,18.63
2023-09-02T12:06:20.073Z,18.05
2023-09-02T12:08:48.692Z,18.38
2023-09-02T12:11:18.721Z,17.93
2023-09-02T12:13:47.310Z,18.09
2023-09-02T12:16:21.787Z,18.17
2023-09-02T12:18:51.924Z,18.25
2023-09-02T12:21:20.764Z,18.12
2023-09-02T12:23:49.568Z,18.29
2023-09-02T12:26:19.407Z,18.08
2023-09-02T12:28:51.190Z,18.04
2023-09-02T12:31:22.021Z,18.34
2023-09-02T12:33:52.950Z,18.15
2023-09-02T12:36:21.849Z,18.04
2023-09-02T12:38:53.881Z,17.85
2023-09-02T12:41:23.824Z,17.17
2023-09-02T12:43:52.422Z,16.62
2023-09-02T12:46:23.642Z,16.36
2023-09-02T12:48:52.955Z,15.80
2023-09-02T12:51:29.973Z,15.53
2023-09-02T12:54:00.414Z,15.49
2023-09-02T12:56:30.534Z,15.63
2023-09-02T12:58:59.103Z,15.39
2023-09-02T13:01:27.770Z,15.62
2023-09-02T13:03:56.705Z,15.43
2023-09-02T13:06:28.282Z,15.50
2023-09-02T13:08:57.890Z,15.96
2023-09-02T13:11:29.452Z,15.40
2023-09-02T13:13:58.453Z,15.26
2023-09-02T13:16:30.074Z,15.47
2023-09-02T13:18:59.499Z,15.22
2023-09-02T13:21:28.400Z,15.72
2023-09-02T13:23:58.628Z,15.64
2023-09-02T13:26:27.370Z,16.07
2023-09-02T13:28:59.597Z,15.89
2023-09-02T13:31:29.699Z,16.15
2023-09-02T13:33:58.742Z,16.77
2023-09-02T13:36:28.742Z,17.04
2023-09-02T13:39:00.648Z,17.07
2023-09-02T13:41:30.156Z,17.16
2023-09-02T13:44:00.972Z,17.24
2023-09-02T13:46:33.363Z,17.07
2023-09-02T13:49:02.370Z,17.27
2023-09-02T13:51:32.050Z,17.62
2023-09-02T13:54:01.943Z,17.60
2023-09-02T13:56:31.350Z,17.78
2023-09-02T13:59:04.376Z,18.28
2023-09-02T14:01:34.561Z,18.57
2023-09-02T14:04:05.208Z,18.94
2023-09-02T14:06:34.212Z,18.49
2023-09-02T14:09:04.210Z,19.05
2023-09-02T14:11:33.897Z,19.26
2023-09-02T14:14:04.969Z,18.54
2023-09-02T14:16:33.547Z,18.59
2023-09-02T14:19:02.727Z,18.61
2023-09-02T14:21:31.298Z,18.66
2023-09-02T14:24:00.279Z,18.07
2023-09-02T14:26:31.409Z,18.57
2023-09-02T14:29:01.006Z,18.38
2023-09-02T14:31:32.831Z,18.40
2023-09-02T14:34:01.491Z,18.04
2023-09-02T14:36:30.612Z,17.76
2023-09-02T14:39:00.115Z,17.35
2023-09-02T14:41:29.386Z,17.40
2023-09-02T14:43:59.765Z,17.13
2023-09-02T14:46:31.349Z,17.25
2023-09-02T14:49:02.081Z,17.42
2023-09-02T14:51:34.812Z,17.58
2023-09-02T14:54:03.617Z,18.09
2023-09-02T14:56:32.431Z,18.16
2023-09-02T14:59:04.909Z,18.34
2023-09-02T15:01:38.392Z,18.50
2023-09-02T15:04:09.104Z,18.41
2023-09-02T15:06:38.345Z,18.34
2023-09-02T15:09:09.225Z,19.10
2023-09-02T15:11:40.160Z,19.33
2023-09-02T15:14:10.468Z,19.35
2023-09-02T15:16:41.084Z,20.04
2023-09-02T15:19:14.747Z,20.26
2023-09-02T15:21:44.211Z,21.14
2023-09-02T15:24:12.971Z,21.18
2023-09-02T15:26:42.692Z,21.88
2023-09-02T15:29:16.125Z,22.15
2023-09-02T15:31:51.090Z,22.39
2023-09-02T15:34:20.213Z,22.71
2023-09-02T15:36:49.630Z,23.17
2023-09-02T15:39:27.740Z,24.05
2023-09-02T15:41:57.674Z,24.19
2023-09-02T15:44:26.683Z,25.13
2023-09-02T15:46:57.427Z,25.48
2023-09-02T15:49:27.136Z,25.94
2023-09-02T15:51:56.396Z,26.71
2023-09-02T15:54:26.303Z,26.90
2023-09-02T15:56:55.444Z,27.21
2023-09-02T15:59:24.726Z,27.54
2023-09-02T16:01:54.325Z,28.11
2023-09-02T16:04:25.764Z,28.16
2023-09-02T16:06:54.831Z,28.48
2023-09-02T16:09:24.383Z,28.51
2023-09-02T16:11:54.932Z,29.07
2023-09-02T16:14:24.389Z,29.14
2023-09-02T16:16:54.652Z,29.33
2023-09-02T16:19:25.620Z,29.37
2023-09-02T16:21:55.031Z,29.44
2023-09-02T16:24:25.265Z,29.57
2023-09-02T16:26:54.296Z,29.62
2023-09-02T16:29:26.504Z,29.50
2023-09-02T16:31:56.129Z,29.32
2023-09-02T16:34:28.443Z,29.80
2023-09-02T16:37:00.211Z,29.64
2023-09-02T16:39:29.951Z,29.98
2023-09-02T16:42:02.831Z,29.80
2023-09-02T16:44:31.554Z,29.78
2023-09-02T16:47:02.219Z,30.17
2023-09-02T16:49:33.300Z,30.34
2023-09-02T16:52:09.854Z,30.45
2023-09-02T16:54:40.690Z,30.52
2023-09-02T16:57:11.891Z,30.90
2023-09-02T16:59:41.289Z,31.13
2023-09-02T17:02:22.085Z,31.01
2023-09-02T17:04:53.553Z,31.22
2023-09-02T17:07:22.608Z,31.38
2023-09-02T17:09:53.768Z,31.52
2023-09-02T17:12:24.786Z,31.83
2023-09-02T17:14:54.991Z,31.97
2023-09-02T17:17:24.015Z,32.13
2023-09-02T17:19:55.103Z,32.61
2023-09-02T17:22:25.687Z,32.81
2023-09-02T17:24:57.998Z,32.81
2023-09-02T17:27:28.908Z,32.63
2023-09-02T17:29:58.364Z,33.02
2023-09-02T17:32:27.372Z,32.87
2023-09-02T17:34:57.992Z,32.98
2023-09-02T17:37:27.450Z,32.95
2023-09-02T17:39:57.616Z,32.98
2023-09-02T17:42:27.781Z,32.95
2023-09-02T17:44:57.760Z,33.06
2023-09-02T17:47:27.537Z,33.21
2023-09-02T17:49:58.016Z,32.95
2023-09-02T17:52:28.626Z,33.03
2023-09-02T17:54:58.119Z,33.05
2023-09-02T17:57:27.459Z,33.30
2023-09-02T17:59:56.581Z,33.28
2023-09-02T18:02:27.548Z,33.33
2023-09-02T18:05:02.379Z,33.38
2023-09-02T18:07:32.687Z,33.47
2023-09-02T18:10:02.599Z,33.48
2023-09-02T18:12:31.902Z,33.35
2023-09-02T18:15:01.010Z,33.74
2023-09-02T18:17:30.028Z,33.92
2023-09-02T18:20:02.919Z,33.76
2023-09-02T18:22:32.702Z,34.13
2023-09-02T18:25:03.551Z,34.05
2023-09-02T18:27:34.369Z,34.07
2023-09-02T18:30:05.169Z,33.97
2023-09-02T18:32:34.936Z,34.48
2023-09-02T18:35:05.751Z,34.32
2023-09-02T18:37:38.143Z,34.55
2023-09-02T18:40:07.942Z,34.49
2023-09-02T18:42:38.229Z,34.54
2023-09-02T18:45:10.170Z,34.75
2023-09-02T18:47:40.624Z,34.39
2023-09-02T18:50:13.644Z,34.69
2023-09-02T18:52:42.755Z,34.72
2023-09-02T18:55:12.977Z,34.69
2023-09-02T18:57:44.134Z,34.63
2023-09-02T19:00:15.538Z,35.18
2023-09-02T19:02:45.718Z,35.18
2023-09-02T19:05:17.812Z,35.46
2023-09-02T19:07:48.237Z,35.52
2023-09-02T19:10:18.345Z,35.69
2023-09-02T19:12:48.766Z,35.76
2023-09-02T19:15:18.533Z,35.84
2023-09-02T19:17:48.446Z,36.28
2023-09-02T19:20:19.809Z,36.06
2023-09-02T19:22:49.616Z,36.59
2023-09-02T19:25:22.423Z,36.58
2023-09-02T19:27:53.095Z,36.71
2023-09-02T19:30:22.905Z,36.64
2023-09-02T19:32:55.860Z,36.77
2023-09-02T19:35:26.859Z,37.37
2023-09-02T19:37:56.326Z,37.18
2023-09-02T19:40:26.187Z,37.55
2023-09-02T19:42:58.594Z,37.56
2023-09-02T19:45:29.583Z,37.89
2023-09-02T19:48:00.587Z,38.01
2023-09-02T19:50:30.649Z,37.83
2023-09-02T19:53:00.985Z,38.06
2023-09-02T19:55:31.010Z,38.31
2023-09-02T19:58:00.448Z,38.32
2023-09-02T20:00:30.589Z,38.90
2023-09-02T20:03:01.864Z,38.78
2023-09-02T20:05:35.914Z,39.37
2023-09-02T20:08:05.167Z,39.69
2023-09-02T20:10:37.006Z,40.07
2023-09-02T20:13:12.253Z,40.01
2023-09-02T20:15:43.710Z,40.19
2023-09-02T20:18:13.704Z,40.65
2023-09-02T20:20:51.079Z,40.58
2023-09-02T20:23:20.730Z,40.96
2023-09-02T20:25:51.930Z,41.28
2023-09-02T20:28:21.531Z,41.28
2023-09-02T20:30:53.225Z,41.12
2023-09-02T20:33:23.659Z,41.26
2023-09-02T20:35:55.277Z,41.75
2023-09-02T20:38:25.560Z,41.36
2023-09-02T20:40:56.611Z,41.86
2023-09-02T20:43:27.265Z,41.78
2023-09-02T20:45:57.310Z,41.55
2023-09-02T20:48:26.627Z,42.02
2023-09-02T20:50:58.116Z,42.42
2023-09-02T20:53:28.343Z,42.34
2023-09-02T20:55:58.624Z,41.98
2023-09-02T20:58:29.170Z,42.33
2023-09-02T21:00:58.463Z,42.50
2023-09-02T21:03:27.071Z,42.44
2023-09-02T21:05:56.961Z,42.81
2023-09-02T21:08:25.621Z,42.48
2023-09-02T21:10:54.262Z,42.78
2023-09-02T21:13:22.747Z,42.85
2023-09-02T21:15:51.301Z,42.97
2023-09-02T21:18:20.327Z,43.39
2023-09-02T21:20:48.954Z,43.43
2023-09-02T21:23:18.827Z,43.06
2023-09-02T21:25:47.430Z,43.66
2023-09-02T21:28:15.880Z,43.23
2023-09-02T21:30:44.449Z,43.54
2023-09-02T21:33:12.954Z,43.15
2023-09-02T21:35:41.451Z,43.41
2023-09-02T21:38:09.877Z,43.80
2023-09-02T21:40:39.685Z,43.81
2023-09-02T21:43:08.177Z,43.94
2023-09-02T21:45:36.687Z,43.90
2023-09-02T21:48:05.935Z,43.58
2023-09-02T21:50:34.490Z,43.58
2023-09-02T21:53:03.016Z,43.57
2023-09-02T21:55:31.569Z,43.71
2023-09-02T21:58:01.444Z,44.16
2023-09-02T22:00:29.931Z,43.96
2023-09-02T22:02:58.541Z,43.88
2023-09-02T22:05:27.079Z,44.44
2023-09-02T22:07:55.552Z,44.44
2023-09-02T22:10:24.366Z,44.18
2023-09-02T22:12:53.571Z,44.05
2023-09-02T22:15:25.221Z,44.42
2023-09-02T22:17:53.825Z,44.25
2023-09-02T22:20:22.375Z,44.29
2023-09-02T22:22:50.884Z,44.23
2023-09-02T22:25:19.649Z,44.42
2023-09-02T22:27:48.217Z,44.70
2023-09-02T22:30:16.817Z,44.25
2023-09-02T22:32:46.716Z,44.36
2023-09-02T22:35:15.724Z,44.40
2023-09-02T22:37:44.192Z,44.50
2023-09-02T22:40:14.646Z,45.12
2023-09-02T22:42:43.117Z,44.81
2023-09-02T22:45:12.170Z,44.60
2023-09-02T22:47:40.682Z,44.91
2023-09-02T22:50:11.739Z,45.19
2023-09-02T22:52:40.186Z,44.89
2023-09-02T22:55:09.999Z,45.13
2023-09-02T22:57:38.761Z,44.90
2023-09-02T23:00:10.702Z,44.93
2023-09-02T23:02:39.307Z,45.36
2023-09-02T23:05:11.634Z,45.26
2023-09-02T23:07:40.082Z,45.04
2023-09-02T23:10:09.827Z,44.95
2023-09-02T23:12:38.468Z,45.17
2023-09-02T23:15:08.611Z,45.24
2023-09-02T23:17:37.170Z,45.24
2023-09-02T23:20:08.298Z,45.29
2023-09-02T23:22:38.428Z,45.07
2023-09-02T23:25:08.068Z,45.10
2023-09-02T23:27:36.586Z,45.18
2023-09-02T23:30:07.465Z,45.19
2023-09-02T23:32:38.364Z,44.95
2023-09-02T23:35:07.868Z,45.44
2023-09-02T23:37:37.779Z,45.33
2023-09-02T23:40:08.137Z,45.92
2023-09-02T23:42:36.578Z,45.45
2023-09-02T23:45:06.131Z,45.53
2023-09-02T23:47:34.575Z,45.75
2023-09-02T23:50:04.827Z,45.86
2023-09-02T23:52:34.001Z,45.95
2023-09-02T23:55:04.350Z,46.22
2023-09-02T23:57:32.983Z,45.61
